Time;durP1;ratioP1;P1;durP2;ratioP2;P2;SDS_P1;SDS_P2;PMS_P1;PMS_P2;Temp;Humidity;BMP_temperature;BMP_pressure;BME280_temperature;BME280_humidity;BME280_pressure;Samples;Min_cycle;Max_cycle;Signal;HPM_P1;HPM_P2
2023/02/12 00:01:10;;;;;;;6.45;5.63;;;21.00;59.80;;;;;;4933842;28;91064;-87
2023/02/12 00:29:04;;;;;;;6.50;5.78;;;20.80;60.50;;;;;;4928987;28;87411;-86
2023/02/12 00:31:31;;;;;;;6.32;5.72;;;20.80;60.60;;;;;;4957849;28;88460;-86
2023/02/12 00:33:58;;;;;;;7.15;6.20;;;20.80;60.50;;;;;;4935971;28;88422;-87
2023/02/12 00:36:26;;;;;;;8.10;6.07;;;20.70;60.60;;;;;;4942003;28;87962;-87
2023/02/12 00:38:53;;;;;;;7.03;6.03;;;20.70;60.60;;;;;;4949328;28;89123;-86
2023/02/12 00:41:19;;;;;;;6.95;6.25;;;20.70;60.70;;;;;;4956579;28;89380;-87
2023/02/12 00:43:56;;;;;;;8.68;6.43;;;20.70;60.50;;;;;;4932374;28;87580;-86
2023/02/12 00:46:22;;;;;;;7.80;6.28;;;20.70;60.40;;;;;;4955484;28;87526;-86
2023/02/12 00:48:48;;;;;;;8.57;6.40;;;20.70;60.60;;;;;;4939231;28;88250;-87
2023/02/12 00:54:35;;;;;;;7.22;5.85;;;20.70;60.50;;;;;;4951613;28;87237;-87
2023/02/12 00:57:01;;;;;;;7.53;6.57;;;20.60;60.70;;;;;;4929294;28;88909;-86
2023/02/12 00:59:27;;;;;;;7.07;5.88;;;20.60;60.80;;;;;;4937645;28;88764;-86
2023/02/12 01:01:54;;;;;;;8.07;6.63;;;20.60;60.90;;;;;;4948538;28;89201;-86
2023/02/12 01:24:30;;;;;;;7.75;6.53;;;20.50;60.40;;;;;;4956910;28;87443;-86
2023/02/12 01:26:55;;;;;;;7.32;5.90;;;20.50;60.50;;;;;;4956695;28;87649;-86
2023/02/12 01:29:21;;;;;;;6.72;6.05;;;20.50;60.40;;;;;;4956709;28;88764;-86
2023/02/12 01:31:47;;;;;;;6.68;5.97;;;20.40;60.40;;;;;;4957070;28;87428;-86
2023/02/12 01:34:12;;;;;;;7.38;6.68;;;20.40;60.50;;;;;;4956567;28;88192;-86
2023/02/12 01:40:00;;;;;;;7.25;6.40;;;20.40;60.40;;;;;;4956595;28;87331;-86
2023/02/12 01:42:26;;;;;;;7.07;6.38;;;20.40;60.30;;;;;;4956820;28;87215;-86
2023/02/12 01:45:13;;;;;;;6.93;6.22;;;20.40;60.30;;;;;;4956426;28;88598;-86
2023/02/12 01:47:44;;;;;;;7.47;6.47;;;20.40;60.30;;;;;;4955964;28;87026;-87
2023/02/12 01:50:13;;;;;;;7.00;6.30;;;20.40;60.20;;;;;;4957785;28;87165;-86
2023/02/12 01:52:47;;;;;;;6.15;5.55;;;20.30;60.20;;;;;;4957757;28;87506;-86
2023/02/12 02:33:08;;;;;;;7.20;6.15;;;20.20;60.40;;;;;;4931601;28;89204;-86
2023/02/12 02:35:39;;;;;;;6.75;6.05;;;20.20;60.30;;;;;;4912823;28;88680;-86
2023/02/12 02:38:12;;;;;;;7.78;6.28;;;20.20;60.30;;;;;;4934513;28;88457;-86
2023/02/12 02:41:15;;;;;;;7.25;6.13;;;20.20;60.40;;;;;;4920793;28;86954;-86
2023/02/12 02:43:48;;;;;;;7.65;6.45;;;20.20;60.40;;;;;;4860138;28;87564;-86
2023/02/12 02:46:26;;;;;;;8.35;6.40;;;20.10;60.30;;;;;;4860825;28;87348;-86
2023/02/12 02:49:00;;;;;;;7.45;6.40;;;20.20;60.30;;;;;;4860610;29;88836;-86
2023/02/12 02:51:32;;;;;;;7.57;6.45;;;20.10;60.30;;;;;;4860695;28;87365;-86
2023/02/12 02:54:01;;;;;;;7.20;6.50;;;20.10;60.40;;;;;;4860205;29;87603;-86
2023/02/12 02:56:29;;;;;;;6.90;6.20;;;20.10;60.30;;;;;;4860317;29;89421;-86
2023/02/12 02:59:05;;;;;;;6.85;6.15;;;20.10;60.30;;;;;;4861454;29;90185;-86
2023/02/12 03:01:46;;;;;;;7.25;6.15;;;20.10;60.30;;;;;;4861062;29;87505;-86
2023/02/12 03:04:44;;;;;;;7.43;6.15;;;20.10;60.40;;;;;;4859907;28;87370;-86
2023/02/12 03:07:27;;;;;;;7.63;6.75;;;20.10;60.50;;;;;;4861013;29;87274;-86
2023/02/12 03:10:00;;;;;;;7.82;6.63;;;20.00;60.30;;;;;;4860607;28;88445;-85
2023/02/12 03:12:42;;;;;;;7.05;6.10;;;20.10;60.30;;;;;;4841644;29;87380;-86
2023/02/12 03:21:56;;;;;;;7.15;6.45;;;20.00;60.10;;;;;;4913981;28;87316;-86
2023/02/12 03:24:40;;;;;;;7.05;6.05;;;20.00;60.40;;;;;;4918182;28;88352;-86
2023/02/12 03:27:33;;;;;;;7.03;6.32;;;20.00;60.30;;;;;;4920159;28;87741;-86
2023/02/12 03:30:09;;;;;;;7.60;6.63;;;20.00;60.30;;;;;;4860336;29;88077;-86
2023/02/12 03:32:34;;;;;;;6.40;5.63;;;20.00;60.20;;;;;;4859607;29;90076;-86
2023/02/12 03:35:26;;;;;;;6.75;6.07;;;20.00;60.10;;;;;;4867992;28;87424;-86
2023/02/12 03:38:03;;;;;;;7.00;6.30;;;19.90;60.20;;;;;;4851360;29;91525;-87
2023/02/12 03:41:21;;;;;;;6.85;6.15;;;20.00;60.20;;;;;;4850807;29;87752;-85
2023/02/12 03:43:52;;;;;;;7.18;5.82;;;19.90;60.10;;;;;;4722713;29;87376;-87
2023/02/12 03:46:42;;;;;;;6.70;6.00;;;19.90;59.60;;;;;;4722687;29;87444;-86
2023/02/12 03:49:26;;;;;;;7.68;6.78;;;20.00;59.70;;;;;;4722802;29;87104;-87
2023/02/12 03:51:52;;;;;;;6.90;6.18;;;19.90;59.70;;;;;;4721098;29;89832;-86
2023/02/12 03:54:20;;;;;;;7.03;5.82;;;19.90;59.60;;;;;;4721456;29;88947;-86
2023/02/12 03:57:16;;;;;;;6.75;5.88;;;19.90;59.90;;;;;;4723137;29;87441;-86
2023/02/12 03:59:43;;;;;;;7.78;6.28;;;19.90;59.70;;;;;;4722060;29;87150;-86
2023/02/12 04:02:08;;;;;;;7.65;6.70;;;19.90;59.60;;;;;;4722084;29;88836;-87
2023/02/12 04:04:35;;;;;;;6.75;6.00;;;19.90;60.40;;;;;;4722343;29;88406;-86
2023/02/12 04:07:01;;;;;;;7.07;6.40;;;19.90;59.70;;;;;;4720199;29;87446;-87
2023/02/12 04:09:27;;;;;;;6.60;5.90;;;19.90;59.70;;;;;;4723542;29;86810;-86
2023/02/12 04:12:33;;;;;;;6.53;5.88;;;19.90;59.60;;;;;;4722087;29;88242;-86
2023/02/12 04:18:44;;;;;;;7.15;6.25;;;19.80;59.80;;;;;;4757672;29;88355;-87
2023/02/12 04:21:47;;;;;;;6.85;6.15;;;19.80;59.80;;;;;;4886768;28;88002;-86
2023/02/12 04:24:24;;;;;;;6.30;5.70;;;19.80;59.70;;;;;;4942752;28;91306;-86
2023/02/12 04:27:15;;;;;;;7.43;6.18;;;19.80;59.70;;;;;;4928589;28;88073;-86
2023/02/12 04:33:09;;;;;;;6.70;5.88;;;19.80;59.80;;;;;;4928889;28;87476;-86
2023/02/12 04:35:56;;;;;;;7.70;6.60;;;19.80;59.60;;;;;;4918701;28;88454;-86
2023/02/12 04:38:29;;;;;;;7.50;6.70;;;19.80;59.60;;;;;;4926184;28;90938;-86
2023/02/12 04:40:55;;;;;;;7.65;6.47;;;19.70;59.60;;;;;;4934651;28;89538;-86
2023/02/12 04:43:36;;;;;;;6.47;5.88;;;19.70;59.70;;;;;;4917700;28;87597;-86
2023/02/12 04:46:06;;;;;;;9.00;6.47;;;19.70;59.60;;;;;;4915386;28;89978;-85
2023/02/12 04:48:36;;;;;;;7.28;6.47;;;19.80;59.60;;;;;;4911327;28;89175;-86
2023/02/12 04:51:01;;;;;;;;;;;19.70;59.60;;;;;;4907426;28;87096;-85
2023/02/12 04:53:27;;;;;;;7.20;6.43;;;19.70;59.50;;;;;;4909854;28;87272;-86
2023/02/12 04:55:54;;;;;;;7.63;6.38;;;19.70;59.60;;;;;;4909577;28;89241;-87
2023/02/12 04:58:20;;;;;;;7.30;6.50;;;19.70;59.50;;;;;;4931039;28;89776;-86
2023/02/12 05:00:45;;;;;;;6.82;6.03;;;19.70;59.60;;;;;;4913580;28;87425;-87
2023/02/12 05:03:11;;;;;;;6.72;6.10;;;19.70;59.80;;;;;;4910442;28;87603;-86
2023/02/12 05:05:46;;;;;;;7.13;6.38;;;19.70;59.60;;;;;;4908506;28;90146;-86
2023/02/12 05:08:12;;;;;;;6.55;5.90;;;19.70;59.60;;;;;;4909932;28;88107;-86
2023/02/12 05:10:37;;;;;;;7.60;6.50;;;19.70;59.60;;;;;;4909333;28;88497;-86
2023/02/12 05:13:03;;;;;;;6.82;6.10;;;19.70;59.60;;;;;;4908880;28;86853;-86
2023/02/12 05:15:28;;;;;;;6.85;6.15;;;19.70;59.40;;;;;;4912954;28;95245;-86
2023/02/12 05:17:54;;;;;;;6.95;6.03;;;19.70;59.40;;;;;;4916823;28;88134;-87
2023/02/12 05:20:19;;;;;;;6.85;6.15;;;19.70;59.50;;;;;;4910437;28;86835;-86
2023/02/12 05:22:45;;;;;;;6.45;5.72;;;19.60;59.50;;;;;;4914683;28;87493;-87
2023/02/12 05:25:11;;;;;;;7.07;6.38;;;19.60;59.40;;;;;;4908671;28;88644;-86
2023/02/12 05:27:36;;;;;;;7.40;6.38;;;19.60;59.50;;;;;;4927566;28;91463;-86
2023/02/12 05:30:08;;;;;;;6.70;6.00;;;19.60;59.50;;;;;;4915352;28;87373;-86
2023/02/12 05:32:34;;;;;;;6.05;5.43;;;19.60;59.50;;;;;;4909457;28;87331;-86
2023/02/12 05:34:59;;;;;;;6.80;6.10;;;19.60;59.40;;;;;;4922632;28;89526;-87
2023/02/12 05:37:25;;;;;;;7.57;6.72;;;19.60;59.50;;;;;;4909640;28;91352;-86
2023/02/12 05:39:50;;;;;;;7.50;6.65;;;19.60;59.40;;;;;;4928421;28;87387;-86
2023/02/12 05:49:00;;;;;;;7.05;6.35;;;19.60;59.40;;;;;;4926528;28;87466;-86
2023/02/12 05:51:26;;;;;;;6.75;6.05;;;19.50;59.50;;;;;;4928100;28;87203;-86
2023/02/12 05:53:58;;;;;;;7.22;5.97;;;19.50;59.50;;;;;;4927720;28;86761;-86
2023/02/12 05:56:27;;;;;;;7.10;6.40;;;19.50;59.40;;;;;;4928691;28;88300;-85
2023/02/12 06:09:03;;;;;;;6.57;5.97;;;19.50;59.50;;;;;;4956760;28;87391;-86
2023/02/12 06:11:28;;;;;;;6.57;5.88;;;19.50;59.70;;;;;;4956994;28;87722;-86
2023/02/12 06:13:54;;;;;;;7.38;6.60;;;19.50;59.50;;;;;;4957849;28;87283;-86
2023/02/12 06:16:23;;;;;;;6.85;6.15;;;19.50;59.50;;;;;;4956455;28;87286;-86
2023/02/12 06:18:50;;;;;;;7.50;6.80;;;19.50;59.60;;;;;;4944064;28;88848;-86
2023/02/12 06:21:17;;;;;;;7.70;6.85;;;19.50;59.60;;;;;;4956352;28;88452;-86
2023/02/12 06:23:42;;;;;;;9.30;6.72;;;19.50;59.70;;;;;;4956154;28;87560;-86
2023/02/12 06:26:08;;;;;;;7.25;6.18;;;19.50;59.50;;;;;;4957351;28;87862;-86
2023/02/12 06:28:34;;;;;;;7.15;6.30;;;19.40;59.50;;;;;;4955415;28;90188;-86
2023/02/12 06:31:00;;;;;;;6.78;6.10;;;19.50;59.60;;;;;;4956861;28;87929;-86
2023/02/12 06:33:25;;;;;;;7.15;6.22;;;19.50;59.50;;;;;;4937605;28;88244;-86
2023/02/12 06:35:51;;;;;;;6.65;5.97;;;19.40;59.50;;;;;;4956545;28;87271;-86
2023/02/12 06:38:17;;;;;;;7.25;6.03;;;19.40;59.50;;;;;;4957308;28;88355;-86
2023/02/12 06:40:42;;;;;;;7.55;6.70;;;19.40;59.50;;;;;;4959368;28;88078;-87
2023/02/12 06:46:30;;;;;;;5.95;5.35;;;19.40;59.40;;;;;;4959006;28;87584;-85
2023/02/12 06:48:57;;;;;;;9.38;7.07;;;19.50;59.10;;;;;;4958983;28;88185;-84
2023/02/12 06:51:24;;;;;;;6.88;6.18;;;19.60;58.90;;;;;;4959417;28;87381;-86
2023/02/12 06:53:51;;;;;;;7.75;6.65;;;19.70;58.80;;;;;;4960948;28;88241;-87
2023/02/12 06:56:18;;;;;;;7.03;6.20;;;19.70;58.80;;;;;;4960002;28;86922;-86
2023/02/12 06:58:45;;;;;;;8.77;6.10;;;19.80;58.60;;;;;;4959033;28;88245;-87
2023/02/12 07:01:17;;;;;;;8.88;6.22;;;19.80;58.40;;;;;;4959080;28;87368;-86
2023/02/12 07:03:47;;;;;;;8.65;6.25;;;19.90;58.50;;;;;;4950886;28;87309;-87
2023/02/12 07:06:12;;;;;;;8.55;6.10;;;20.10;58.50;;;;;;4959332;28;87422;-86
2023/02/12 07:08:39;;;;;;;9.68;6.65;;;20.20;58.40;;;;;;4947914;28;88472;-87
2023/02/12 07:11:05;;;;;;;8.85;6.10;;;20.30;58.00;;;;;;4953392;28;88140;-85
2023/02/12 07:16:54;;;;;;;7.45;5.85;;;20.40;57.90;;;;;;4959302;28;90472;-87
2023/02/12 07:19:21;;;;;;;9.55;5.93;;;20.40;57.40;;;;;;4958529;28;89488;-87
2023/02/12 07:21:46;;;;;;;8.45;6.80;;;20.40;57.30;;;;;;4958868;28;89293;-86
2023/02/12 07:24:13;;;;;;;8.23;6.63;;;20.40;57.40;;;;;;4959089;28;87280;-87
2023/02/12 07:26:40;;;;;;;7.95;6.55;;;20.40;57.50;;;;;;4958946;28;87873;-87
2023/02/12 07:29:06;;;;;;;7.10;6.20;;;20.40;57.40;;;;;;4959716;28;88877;-86
2023/02/12 07:31:44;;;;;;;9.85;6.93;;;20.40;57.50;;;;;;4960922;28;87607;-86
2023/02/12 07:34:10;;;;;;;8.00;6.45;;;20.30;57.50;;;;;;4958421;28;87420;-87
2023/02/12 07:36:36;;;;;;;8.60;6.22;;;20.30;57.90;;;;;;4959299;28;86881;-86
2023/02/12 07:39:02;;;;;;;6.78;6.05;;;20.20;57.90;;;;;;4958008;28;88678;-86
2023/02/12 07:41:31;;;;;;;7.93;6.63;;;20.20;57.80;;;;;;4958120;28;88740;-86
2023/02/12 07:44:08;;;;;;;7.15;6.35;;;20.10;57.70;;;;;;4959101;28;88296;-87
2023/02/12 07:46:41;;;;;;;7.80;6.43;;;20.10;57.90;;;;;;4957012;28;90383;-87
2023/02/12 07:49:10;;;;;;;9.38;6.93;;;20.10;57.90;;;;;;4958285;28;89180;-87
2023/02/12 07:51:36;;;;;;;7.63;6.40;;;20.10;58.00;;;;;;4958143;28;88332;-87
2023/02/12 08:04:22;;;;;;;9.05;6.85;;;20.10;57.90;;;;;;4954738;28;86875;-85
2023/02/12 08:06:50;;;;;;;8.48;6.85;;;20.10;57.90;;;;;;4940934;28;87622;-87
2023/02/12 08:09:18;;;;;;;8.35;7.45;;;20.00;58.10;;;;;;4952622;28;87892;-86
2023/02/12 08:11:44;;;;;;;7.50;6.03;;;20.00;58.40;;;;;;4948141;28;89148;-87
2023/02/12 08:14:12;;;;;;;23.02;8.77;;;20.10;58.20;;;;;;4951667;28;89283;-86
2023/02/12 08:16:39;;;;;;;14.07;8.10;;;20.00;58.20;;;;;;4958500;28;87214;-88
2023/02/12 08:19:05;;;;;;;18.80;8.52;;;20.00;58.50;;;;;;4958229;28;87119;-87
2023/02/12 08:21:31;;;;;;;20.33;8.82;;;20.10;58.50;;;;;;4956430;28;88110;-88
2023/02/12 08:23:58;;;;;;;16.92;9.23;;;20.10;58.30;;;;;;4957621;28;88355;-83
2023/02/12 08:26:27;;;;;;;14.80;9.02;;;20.10;58.20;;;;;;4959248;28;86923;-86
2023/02/12 08:28:58;;;;;;;;;;;20.20;57.80;;;;;;4959098;28;91263;-86
2023/02/12 08:31:29;;;;;;;16.92;8.40;;;20.40;58.00;;;;;;4959495;28;95249;-86
2023/02/12 08:33:56;;;;;;;14.77;8.80;;;20.40;58.00;;;;;;4917457;28;90951;-87
2023/02/12 08:36:23;;;;;;;21.13;10.57;;;20.50;57.80;;;;;;4915844;28;88793;-87
2023/02/12 08:38:49;;;;;;;18.35;9.65;;;20.50;57.80;;;;;;4915675;28;88051;-86
2023/02/12 08:41:23;;;;;;;20.92;10.45;;;20.50;57.90;;;;;;4917285;28;88204;-86
2023/02/12 08:50:41;;;;;;;26.23;13.98;;;20.50;58.40;;;;;;4915770;28;91135;-84
2023/02/12 08:53:06;;;;;;;29.85;15.18;;;20.40;57.60;;;;;;4899982;28;91751;-86
2023/02/12 08:55:32;;;;;;;28.75;15.32;;;20.30;57.70;;;;;;4915936;28;88338;-85
2023/02/12 08:57:58;;;;;;;26.20;13.50;;;20.30;57.50;;;;;;4905807;28;87771;-85
2023/02/12 09:00:23;;;;;;;32.97;16.00;;;20.20;57.90;;;;;;4915417;28;87539;-85
2023/02/12 09:03:07;;;;;;;27.27;13.68;;;20.20;58.40;;;;;;4904629;28;88924;-86
2023/02/12 09:05:36;;;;;;;26.17;13.55;;;20.20;58.10;;;;;;4933191;28;89194;-85
2023/02/12 09:08:02;;;;;;;31.23;14.70;;;20.10;58.90;;;;;;4938194;28;87399;-87
2023/02/12 09:10:28;;;;;;;27.52;12.85;;;20.20;59.50;;;;;;4935413;28;89188;-87
2023/02/12 09:12:53;;;;;;;33.25;15.05;;;20.20;59.20;;;;;;4936798;28;87366;-86
2023/02/12 09:15:22;;;;;;;40.90;16.85;;;20.30;59.10;;;;;;4943554;28;91757;-86
2023/02/12 09:17:48;;;;;;;37.85;17.63;;;20.30;58.50;;;;;;4936985;28;87461;-86
2023/02/12 09:20:16;;;;;;;42.90;20.95;;;20.30;58.30;;;;;;4938507;28;86891;-86
2023/02/12 09:22:44;;;;;;;62.38;22.80;;;20.20;57.90;;;;;;4943232;28;92178;-87
2023/02/12 09:25:09;;;;;;;49.88;22.20;;;20.20;58.00;;;;;;4937883;28;86980;-87
2023/02/12 09:30:57;;;;;;;44.20;25.25;;;20.20;58.00;;;;;;4935908;28;87276;-84
2023/02/12 09:33:23;;;;;;;47.28;23.58;;;20.20;56.60;;;;;;4938969;28;88447;-84
2023/02/12 09:35:49;;;;;;;47.80;23.33;;;20.10;57.30;;;;;;4956056;28;87966;-86
2023/02/12 09:38:15;;;;;;;47.17;26.15;;;20.20;58.00;;;;;;4957395;28;87432;-86
2023/02/12 09:41:02;;;;;;;48.72;25.50;;;20.20;57.20;;;;;;4954276;28;88230;-86
2023/02/12 09:44:04;;;;;;;45.80;26.33;;;20.30;58.40;;;;;;4954152;28;90462;-87
2023/02/12 09:46:34;;;;;;;43.97;23.90;;;20.30;60.60;;;;;;4956487;28;88416;-85
2023/02/12 09:49:29;;;;;;;46.40;24.35;;;20.30;59.90;;;;;;4955807;28;86992;-85
2023/02/12 09:51:55;;;;;;;45.55;23.40;;;20.20;59.70;;;;;;4955093;28;87697;-85
2023/02/12 09:54:24;;;;;;;43.90;22.38;;;20.30;59.90;;;;;;4955541;28;88976;-85
2023/02/12 09:56:56;;;;;;;39.75;23.33;;;20.40;59.60;;;;;;4938166;28;92162;-85
2023/02/12 09:59:44;;;;;;;43.78;21.95;;;20.40;58.90;;;;;;4899588;28;87520;-85
2023/02/12 10:02:15;;;;;;;36.92;21.23;;;20.30;59.20;;;;;;4955086;28;92256;-86
2023/02/12 10:04:43;;;;;;;47.72;25.40;;;20.20;58.90;;;;;;4955791;28;88684;-86
2023/02/12 10:07:17;;;;;;;46.05;29.08;;;20.20;57.90;;;;;;4936452;28;91964;-86
2023/02/12 10:10:24;;;;;;;41.47;28.23;;;20.20;56.90;;;;;;4955178;28;87338;-86
2023/02/12 10:13:03;;;;;;;44.85;28.30;;;20.20;57.70;;;;;;4875980;28;86732;-86
2023/02/12 10:25:23;;;;;;;42.08;28.85;;;20.10;60.20;;;;;;4892542;28;88032;-84
2023/02/12 10:27:52;;;;;;;43.28;27.27;;;20.20;58.80;;;;;;4898456;28;89158;-88
2023/02/12 10:30:26;;;;;;;40.67;27.67;;;20.20;58.50;;;;;;4891155;28;92002;-86
2023/02/12 10:33:04;;;;;;;42.85;27.58;;;20.20;58.10;;;;;;4898818;28;86965;-87
2023/02/12 10:45:41;;;;;;;39.08;27.55;;;20.10;58.40;;;;;;4889246;28;87034;-87
2023/02/12 10:48:20;;;;;;;41.70;30.80;;;20.10;58.10;;;;;;4897963;28;87550;-86
2023/02/12 10:51:04;;;;;;;35.60;24.67;;;20.10;57.50;;;;;;4933245;28;91690;-87
2023/02/12 10:53:44;;;;;;;41.25;27.08;;;20.10;57.60;;;;;;4936736;28;92227;-86
2023/02/12 11:03:20;;;;;;;36.22;24.65;;;20.20;57.30;;;;;;4909274;28;87180;-86
2023/02/12 11:05:47;;;;;;;36.90;25.17;;;20.20;57.70;;;;;;4900913;28;88334;-88
2023/02/12 11:08:34;;;;;;;47.28;25.60;;;20.30;58.40;;;;;;4918495;28;87364;-87
2023/02/12 11:11:36;;;;;;;39.35;24.67;;;20.40;58.70;;;;;;4917417;28;90305;-87
2023/02/12 11:14:31;;;;;;;40.03;26.17;;;20.40;58.90;;;;;;4917348;28;92985;-87
2023/02/12 11:17:01;;;;;;;37.38;24.67;;;20.40;59.80;;;;;;4887934;28;92640;-87
2023/02/12 11:19:30;;;;;;;38.75;24.05;;;20.50;59.90;;;;;;4885965;28;88445;-86
2023/02/12 11:22:17;;;;;;;41.83;25.67;;;20.50;60.00;;;;;;4868492;28;89119;-87
2023/02/12 11:24:44;;;;;;;37.65;24.38;;;20.40;59.90;;;;;;4884046;28;88084;-86
2023/02/12 11:27:21;;;;;;;40.58;22.70;;;20.40;60.90;;;;;;4882157;28;91868;-87
2023/02/12 11:30:12;;;;;;;34.47;23.52;;;20.50;60.40;;;;;;4883408;28;87593;-88
2023/02/12 11:32:38;;;;;;;31.83;21.15;;;20.60;60.00;;;;;;4887891;28;90531;-88
2023/02/12 11:35:12;;;;;;;30.48;21.38;;;20.70;59.90;;;;;;4887383;28;89142;-88
2023/02/12 11:37:45;;;;;;;30.08;20.35;;;20.80;59.60;;;;;;4888785;28;90979;-87
2023/02/12 11:40:24;;;;;;;26.20;19.58;;;20.90;59.30;;;;;;4887511;28;87706;-87
2023/02/12 11:42:56;;;;;;;30.25;20.30;;;21.00;59.20;;;;;;4892859;28;90360;-87
2023/02/12 11:52:16;;;;;;;32.95;20.20;;;21.20;63.80;;;;;;4896572;28;87136;-86
2023/02/12 11:54:46;;;;;;;35.22;22.52;;;21.20;62.30;;;;;;4938148;28;87876;-87
2023/02/12 11:57:45;;;;;;;33.47;22.73;;;21.20;64.00;;;;;;4928689;28;88764;-87
2023/02/12 12:00:41;;;;;;;35.35;25.48;;;21.20;67.10;;;;;;4824022;29;91332;-86
2023/02/12 12:03:19;;;;;;;35.63;24.58;;;21.10;65.00;;;;;;4849281;29;87396;-87
2023/02/12 12:05:50;;;;;;;40.77;27.33;;;21.10;65.80;;;;;;4849684;29;86896;-87
2023/02/12 12:08:23;;;;;;;38.22;27.77;;;21.00;65.90;;;;;;4849160;29;89649;-86
2023/02/12 12:10:54;;;;;;;35.72;24.90;;;20.90;64.10;;;;;;4849804;29;92784;-87
2023/02/12 12:13:26;;;;;;;38.38;26.42;;;21.00;62.60;;;;;;4849702;28;88147;-86
2023/02/12 12:25:19;;;;;;;38.38;24.38;;;20.90;60.40;;;;;;4848878;29;87298;-86
2023/02/12 12:28:12;;;;;;;35.20;22.83;;;20.80;60.80;;;;;;4848624;29;88435;-86
2023/02/12 12:30:49;;;;;;;32.47;22.40;;;20.80;61.10;;;;;;4854292;28;88612;-87
2023/02/12 12:41:10;;;;;;;28.60;20.63;;;20.70;61.50;;;;;;4951332;28;90585;-87
2023/02/12 12:43:48;;;;;;;31.50;22.03;;;20.60;61.60;;;;;;4956436;28;89535;-86
2023/02/12 12:46:32;;;;;;;27.63;20.38;;;20.70;61.50;;;;;;4957298;28;89344;-87
2023/02/12 12:56:00;;;;;;;27.48;19.50;;;21.00;60.90;;;;;;4895600;28;87202;-86
2023/02/12 12:58:50;;;;;;;26.92;17.95;;;21.10;61.50;;;;;;4896520;28;88224;-87
2023/02/12 13:01:45;;;;;;;23.67;18.25;;;21.20;60.20;;;;;;4896329;28;87292;-86
2023/02/12 13:11:20;;;;;;;24.13;17.83;;;21.40;59.80;;;;;;4914631;28;91505;-85
2023/02/12 13:13:49;;;;;;;23.00;17.88;;;21.40;59.90;;;;;;4914591;28;88651;-87
2023/02/12 13:16:28;;;;;;;;;;;21.40;59.80;;;;;;4915940;28;87603;-87
2023/02/12 13:19:12;;;;;;;30.20;19.10;;;21.40;60.00;;;;;;4915790;28;90549;-88
2023/02/12 13:21:46;;;;;;;25.08;18.33;;;21.40;59.90;;;;;;4914621;28;89054;-88
2023/02/12 13:24:30;;;;;;;31.83;18.60;;;21.30;60.00;;;;;;4934243;28;87651;-85
2023/02/12 13:27:03;;;;;;;27.92;18.67;;;21.30;60.10;;;;;;4934711;28;87350;-88
2023/02/12 13:29:51;;;;;;;31.80;19.63;;;21.30;60.10;;;;;;4934056;28;91634;-86
2023/02/12 13:33:05;;;;;;;24.88;16.67;;;21.20;60.10;;;;;;4934804;28;88658;-86
2023/02/12 13:35:33;;;;;;;28.52;17.90;;;21.20;60.40;;;;;;4887909;28;87630;-87
2023/02/12 13:38:01;;;;;;;28.07;17.73;;;21.20;60.30;;;;;;4891275;28;87421;-86
2023/02/12 13:40:29;;;;;;;28.02;19.30;;;21.20;60.30;;;;;;4885608;28;89365;-94
2023/02/12 13:46:53;;;;;;;28.10;18.08;;;21.20;59.90;;;;;;4886799;28;87403;-92
2023/02/12 13:49:37;;;;;;;25.80;16.23;;;21.30;60.10;;;;;;4892531;28;89135;-92
2023/02/12 13:52:16;;;;;;;23.83;16.92;;;21.40;59.90;;;;;;4915043;28;90782;-92
2023/02/12 13:54:59;;;;;;;26.15;18.30;;;21.50;60.00;;;;;;4915025;28;88123;-93
2023/02/12 14:01:08;;;;;;;28.15;16.58;;;21.60;59.60;;;;;;4914574;28;87097;-93
2023/02/12 14:03:35;;;;;;;23.13;16.88;;;21.80;59.70;;;;;;4913895;28;91032;-93
2023/02/12 14:06:20;;;;;;;21.30;15.77;;;21.80;59.50;;;;;;4906053;28;89849;-92
2023/02/12 14:08:54;;;;;;;21.33;15.27;;;21.90;59.40;;;;;;4924998;28;88027;-93
2023/02/12 14:11:47;;;;;;;23.30;15.77;;;21.90;59.40;;;;;;4948379;28;89897;-92
2023/02/12 14:14:23;;;;;;;21.73;16.27;;;21.90;59.30;;;;;;4954026;28;96037;-94
2023/02/12 14:16:49;;;;;;;20.58;16.02;;;21.90;59.40;;;;;;4955434;28;87942;-93
2023/02/12 14:19:36;;;;;;;20.48;14.70;;;21.90;59.50;;;;;;4956130;28;87403;-92
2023/02/12 14:22:27;;;;;;;20.73;15.93;;;21.90;59.30;;;;;;4923057;28;89583;-93
2023/02/12 14:24:55;;;;;;;21.08;14.80;;;22.00;59.30;;;;;;4857316;28;91694;-93
2023/02/12 14:27:36;;;;;;;20.52;15.95;;;22.00;59.30;;;;;;4852081;28;90496;-93
2023/02/12 14:30:18;;;;;;;19.65;15.18;;;22.10;59.20;;;;;;4850128;28;87486;-92
2023/02/12 14:33:22;;;;;;;18.73;13.88;;;22.20;58.90;;;;;;4867641;28;87308;-94
2023/02/12 14:36:09;;;;;;;18.17;14.10;;;22.30;59.00;;;;;;4868540;28;88406;-94
2023/02/12 14:38:40;;;;;;;18.38;14.05;;;22.30;59.00;;;;;;4860947;28;92165;-94
2023/02/12 14:41:42;;;;;;;20.80;14.85;;;22.30;59.20;;;;;;4866007;28;87225;-93
2023/02/12 14:44:16;;;;;;;20.23;15.65;;;22.30;59.00;;;;;;4852533;28;94468;-92
2023/02/12 14:47:22;;;;;;;22.63;14.98;;;22.30;58.90;;;;;;4859778;28;88849;-93
2023/02/12 14:49:53;;;;;;;19.17;13.32;;;22.40;57.40;;;;;;4857966;28;91259;-93
2023/02/12 14:52:25;;;;;;;19.67;14.13;;;22.40;58.30;;;;;;4861164;28;90137;-93
2023/02/12 14:55:00;;;;;;;19.60;14.35;;;22.40;58.60;;;;;;4901141;28;86911;-94
2023/02/12 14:57:42;;;;;;;18.40;12.98;;;22.40;58.70;;;;;;4954326;28;88749;-94
2023/02/12 15:00:16;;;;;;;17.85;13.73;;;22.40;58.60;;;;;;4932550;28;91017;-93
2023/02/12 15:03:13;;;;;;;22.27;14.15;;;22.50;58.60;;;;;;4941098;28;88264;-92
2023/02/12 15:06:19;;;;;;;15.40;12.88;;;22.60;58.30;;;;;;4940395;28;90905;-93
2023/02/12 15:08:52;;;;;;;16.95;13.35;;;22.60;58.20;;;;;;4859703;29;88313;-93
2023/02/12 15:11:49;;;;;;;16.45;12.73;;;22.70;58.20;;;;;;4860004;29;87669;-93
2023/02/12 15:14:22;;;;;;;19.73;13.35;;;22.80;58.10;;;;;;4875715;28;91833;-91
2023/02/12 15:16:58;;;;;;;18.17;13.50;;;22.90;58.30;;;;;;4878508;28;87551;-93
2023/02/12 15:29:43;;;;;;;19.45;13.60;;;23.10;57.60;;;;;;4878143;28;90496;-92
2023/02/12 15:32:18;;;;;;;18.77;12.45;;;23.10;56.80;;;;;;4871468;28;92807;-91
2023/02/12 15:34:48;;;;;;;14.93;12.38;;;23.10;57.10;;;;;;4875483;28;91985;-91
2023/02/12 15:37:28;;;;;;;17.00;11.35;;;23.10;57.20;;;;;;4877766;28;87674;-90
2023/02/12 15:40:14;;;;;;;15.82;11.45;;;23.00;57.30;;;;;;4878532;28;90737;-91
2023/02/12 15:42:41;;;;;;;18.02;13.07;;;23.00;57.40;;;;;;4878446;28;87636;-90
2023/02/12 15:45:13;;;;;;;22.80;12.57;;;23.00;57.70;;;;;;4899823;28;89661;-90
2023/02/12 15:47:40;;;;;;;16.08;11.65;;;22.90;57.90;;;;;;4949389;28;92398;-90
2023/02/12 15:56:35;;;;;;;13.60;11.20;;;23.00;58.40;;;;;;4956736;28;91743;-91
2023/02/12 15:59:02;;;;;;;21.13;12.23;;;23.20;58.00;;;;;;4926177;28;88520;-92
2023/02/12 16:01:33;;;;;;;16.77;11.07;;;23.20;58.10;;;;;;4918066;28;87825;-91
2023/02/12 16:04:04;;;;;;;16.83;11.10;;;23.20;58.50;;;;;;4923364;28;88511;-92
2023/02/12 16:06:35;;;;;;;15.02;11.60;;;23.20;58.70;;;;;;4933687;28;91218;-92
2023/02/12 16:09:08;;;;;;;16.27;12.18;;;23.20;58.70;;;;;;4928118;28;87181;-93
2023/02/12 16:11:35;;;;;;;15.60;11.02;;;23.20;58.70;;;;;;4916693;28;88738;-92
2023/02/12 16:14:15;;;;;;;15.10;11.07;;;23.20;58.90;;;;;;4926728;28;90592;-93
2023/02/12 16:16:51;;;;;;;16.95;12.68;;;23.10;59.50;;;;;;4925795;28;87577;-92
2023/02/12 16:19:28;;;;;;;18.02;12.07;;;23.10;59.00;;;;;;4928092;28;87537;-92
2023/02/12 16:22:02;;;;;;;17.25;11.48;;;23.10;59.10;;;;;;4917034;28;90133;-91
2023/02/12 16:24:49;;;;;;;15.10;12.02;;;23.10;59.20;;;;;;4926417;28;88975;-92
2023/02/12 16:27:20;;;;;;;16.15;11.93;;;23.00;59.40;;;;;;4925454;28;89353;-91
2023/02/12 16:29:50;;;;;;;13.73;11.00;;;23.00;59.50;;;;;;4916800;28;87431;-91
2023/02/12 16:32:28;;;;;;;14.65;10.95;;;23.10;59.90;;;;;;4935071;28;87524;-92
2023/02/12 16:35:05;;;;;;;13.65;10.07;;;23.10;60.00;;;;;;4956839;28;92126;-91
2023/02/12 16:37:37;;;;;;;14.98;11.20;;;23.10;59.80;;;;;;4955479;28;88344;-90
2023/02/12 16:40:05;;;;;;;15.68;11.55;;;23.20;59.90;;;;;;4925133;28;87789;-91
2023/02/12 16:42:32;;;;;;;13.95;10.65;;;23.20;60.10;;;;;;4956842;28;86958;-92
2023/02/12 16:44:57;;;;;;;13.98;10.27;;;23.20;60.10;;;;;;4940109;28;90269;-92
2023/02/12 16:47:24;;;;;;;12.95;10.60;;;23.20;59.90;;;;;;4935503;28;91633;-91
2023/02/12 16:50:00;;;;;;;15.05;11.02;;;23.20;60.10;;;;;;4935337;28;90629;-91
2023/02/12 16:52:39;;;;;;;13.52;10.95;;;23.20;60.20;;;;;;4931522;28;87719;-93
2023/02/12 16:55:15;;;;;;;15.77;10.88;;;23.20;60.30;;;;;;4953466;28;88933;-92
2023/02/12 16:57:41;;;;;;;14.43;11.02;;;23.20;60.10;;;;;;4923658;28;90239;-91
2023/02/12 17:00:08;;;;;;;13.65;10.15;;;23.20;60.30;;;;;;4954399;28;87122;-92
2023/02/12 17:02:37;;;;;;;12.32;9.55;;;23.10;60.20;;;;;;4957110;28;88519;-91
2023/02/12 17:05:07;;;;;;;13.27;10.35;;;23.10;60.40;;;;;;4948677;28;89512;-91
2023/02/12 17:07:33;;;;;;;15.93;10.77;;;23.10;60.20;;;;;;4933434;28;90344;-90